createdAt,value
2019-01-17T00:25:57.188Z,67.58
2019-01-17T00:54:39.506Z,67.59
2019-01-17T01:23:13.735Z,67.88
2019-01-17T01:51:50.443Z,68.59
2019-01-17T02:20:31.569Z,69.53
2019-01-17T02:49:05.994Z,68.69
2019-01-17T03:17:47.724Z,67.98
2019-01-17T03:46:22.007Z,67.47
2019-01-17T04:15:01.737Z,67.9
2019-01-17T04:43:41.997Z,69.39
2019-01-17T05:12:17.522Z,70.89
2019-01-17T05:40:51.965Z,72.49
2019-01-17T06:09:29.813Z,73.47
2019-01-17T06:38:08.958Z,73.55
2019-01-17T07:06:49.229Z,74.15
2019-01-17T07:35:23.465Z,75.13
2019-01-17T08:04:03.108Z,76.93
2019-01-17T08:32:38.645Z,76.95
2019-01-17T09:01:17.694Z,76.38
2019-01-17T09:29:58.523Z,75.89
2019-01-17T09:58:37.740Z,75.04
2019-01-17T10:27:12.293Z,74.41
2019-01-17T10:55:52.216Z,73.51
2019-01-17T11:24:32.590Z,73.11
2019-01-17T11:53:13.369Z,71.82
2019-01-17T12:21:53.451Z,70.99
2019-01-17T12:50:33.670Z,72.31
2019-01-17T13:19:00.018Z,76.25
2019-01-17T13:47:37.861Z,76.9
2019-01-17T14:16:17.254Z,75.46
2019-01-17T14:44:55.932Z,70.25
2019-01-17T15:13:29.882Z,69.75
2019-01-17T15:42:07.247Z,69.89
2019-01-17T16:10:45.866Z,70.98
2019-01-17T16:39:24.280Z,69.34
2019-01-17T17:08:05.327Z,71.69
2019-01-17T17:36:23.469Z,77.16
2019-01-17T18:05:00.344Z,79.13
2019-01-17T18:33:33.260Z,79.75
2019-01-17T19:02:11.629Z,79.1
2019-01-17T19:30:52.480Z,79.63
2019-01-17T19:59:23.310Z,78.58
2019-01-17T20:28:01.759Z,78.03
2019-01-17T20:56:34.861Z,77.87
2019-01-17T21:25:11.495Z,78.12
2019-01-17T21:53:46.423Z,80.33
2019-01-17T22:22:25.108Z,79.84
2019-01-17T22:51:00.888Z,79.31
2019-01-17T23:19:34.625Z,78.38
2019-01-17T23:48:14.948Z,77.83
